createdAt,value
2022-10-01T00:06:22.543Z,3.80
2022-10-01T00:16:26.884Z,4.00
2022-10-01T00:18:55.128Z,3.50
2022-10-01T00:21:25.419Z,4.00
2022-10-01T00:23:57.891Z,3.60
2022-10-01T00:26:28.030Z,2.90
2022-10-01T00:29:01.164Z,4.00
2022-10-01T00:44:02.395Z,4.00
2022-10-01T00:46:42.938Z,4.00
2022-10-01T00:49:19.080Z,4.00
2022-10-01T00:54:24.936Z,4.00
2022-10-01T01:04:20.598Z,3.00
2022-10-01T01:09:30.638Z,4.00
2022-10-01T01:19:54.863Z,4.10
2022-10-01T01:22:25.534Z,4.10
2022-10-01T01:27:31.808Z,4.20
2022-10-01T01:32:46.349Z,4.10
2022-10-01T01:42:45.182Z,4.20
2022-10-01T01:45:16.065Z,4.20
2022-10-01T01:47:45.481Z,4.20
2022-10-01T01:50:15.594Z,4.70
2022-10-01T01:52:43.122Z,4.20
2022-10-01T02:02:44.642Z,4.20
2022-10-01T02:08:16.480Z,4.10
2022-10-01T02:13:50.494Z,4.10
2022-10-01T02:16:42.569Z,5.30
2022-10-01T02:19:22.897Z,3.50
2022-10-01T02:27:13.785Z,4.20
2022-10-01T02:29:43.886Z,4.00
2022-10-01T02:32:11.875Z,4.00
2022-10-01T02:42:07.229Z,4.10
2022-10-01T02:44:40.213Z,3.80
2022-10-01T02:47:33.545Z,4.10
2022-10-01T02:50:05.707Z,4.10
2022-10-01T02:55:09.521Z,4.20
2022-10-01T03:07:35.798Z,4.30
2022-10-01T03:14:59.495Z,4.30
2022-10-01T03:22:23.776Z,4.40
2022-10-01T03:24:52.747Z,3.30
2022-10-01T03:27:21.710Z,4.00
2022-10-01T04:19:05.636Z,4.20
2022-10-01T04:33:57.935Z,4.60
2022-10-01T04:38:59.319Z,4.70
2022-10-01T04:46:29.144Z,4.80
2022-10-01T04:56:20.207Z,6.30
2022-10-01T05:01:16.418Z,6.30
2022-10-01T05:18:32.536Z,6.50
2022-10-01T05:23:28.000Z,6.30
2022-10-01T05:40:46.241Z,5.90
2022-10-01T05:45:43.140Z,5.80
2022-10-01T05:50:44.208Z,5.80
2022-10-01T05:53:15.840Z,5.80
2022-10-01T06:30:31.943Z,6.30
2022-10-01T06:33:10.193Z,6.20
2022-10-01T06:35:42.926Z,6.50
2022-10-01T06:43:09.163Z,6.20
2022-10-01T06:58:01.682Z,7.10
2022-10-01T07:12:51.089Z,7.50
2022-10-01T07:30:13.692Z,8.30
2022-10-01T07:45:06.754Z,9.40
2022-10-01T07:59:56.064Z,8.40
2022-10-01T08:05:10.105Z,8.00
2022-10-01T08:15:06.857Z,8.40
2022-10-01T08:17:34.847Z,9.40
2022-10-01T08:20:02.654Z,10.30
2022-10-01T08:27:26.528Z,7.20
2022-10-01T08:34:56.856Z,8.40
2022-10-01T08:37:28.973Z,8.40
2022-10-01T08:42:41.832Z,8.50
2022-10-01T08:45:35.427Z,8.60
2022-10-01T08:48:26.248Z,6.80
2022-10-01T08:51:07.936Z,8.60
2022-10-01T08:53:57.129Z,8.30
2022-10-01T08:56:35.527Z,8.60
2022-10-01T08:59:29.875Z,7.20
2022-10-01T09:01:59.242Z,9.70
2022-10-01T09:04:28.414Z,8.70
2022-10-01T09:07:10.813Z,8.70
2022-10-01T09:10:04.622Z,9.50
2022-10-01T09:13:07.394Z,8.70
2022-10-01T09:18:22.740Z,9.00
2022-10-01T09:20:56.285Z,8.80
2022-10-01T09:23:38.642Z,8.90
2022-10-01T09:26:10.711Z,8.90
2022-10-01T09:28:41.710Z,8.90
2022-10-01T09:31:26.836Z,8.90
2022-10-01T09:34:16.095Z,9.00
2022-10-01T09:36:59.710Z,9.00
2022-10-01T09:39:46.876Z,9.00
2022-10-01T09:42:14.742Z,9.00
2022-10-01T09:44:42.838Z,9.10
2022-10-01T09:47:23.362Z,9.10
2022-10-01T09:52:39.734Z,7.80
2022-10-01T09:55:31.546Z,9.20
2022-10-01T10:05:39.953Z,9.30
2022-10-01T10:08:21.345Z,9.30
2022-10-01T10:11:03.216Z,9.30
2022-10-01T10:16:30.619Z,9.30
2022-10-01T10:21:37.445Z,9.30
2022-10-01T10:31:43.075Z,9.20
2022-10-01T10:36:47.521Z,9.30
2022-10-01T10:39:26.032Z,9.80
2022-10-01T10:44:24.397Z,9.20
2022-10-01T10:49:28.049Z,9.20
2022-10-01T10:51:58.736Z,9.20
2022-10-01T10:54:37.690Z,9.20
2022-10-01T11:02:06.344Z,9.00
2022-10-01T11:07:02.282Z,9.10
2022-10-01T11:10:03.471Z,9.00
2022-10-01T11:12:38.560Z,9.00
2022-10-01T11:15:30.230Z,9.20
2022-10-01T11:21:11.833Z,9.10
2022-10-01T11:24:00.140Z,9.00
2022-10-01T11:26:34.934Z,9.10
2022-10-01T11:31:47.747Z,9.20
2022-10-01T11:34:19.190Z,9.40
2022-10-01T11:36:55.322Z,9.20
2022-10-01T11:44:31.692Z,9.40
2022-10-01T11:52:40.269Z,9.70
2022-10-01T12:01:04.880Z,10.20
2022-10-01T12:13:55.391Z,10.60
2022-10-01T12:21:34.263Z,10.70
2022-10-01T12:24:07.170Z,10.70
2022-10-01T12:27:00.528Z,10.70
2022-10-01T12:29:55.735Z,10.60
2022-10-01T12:35:21.608Z,10.60
2022-10-01T12:38:03.731Z,10.50
2022-10-01T12:40:48.283Z,9.50
2022-10-01T12:43:50.813Z,10.50
2022-10-01T12:46:29.375Z,10.50
2022-10-01T12:52:06.540Z,10.50
2022-10-01T13:03:13.268Z,10.50
2022-10-01T13:06:04.731Z,10.40
2022-10-01T13:11:20.757Z,11.50
2022-10-01T13:18:58.922Z,11.20
2022-10-01T13:21:45.161Z,10.30
2022-10-01T13:24:26.906Z,10.30
2022-10-01T13:27:05.710Z,10.30
2022-10-01T13:32:36.196Z,11.00
2022-10-01T13:35:27.951Z,10.40
2022-10-01T13:40:34.129Z,10.40
2022-10-01T13:43:19.946Z,10.40
2022-10-01T13:45:49.568Z,10.30
2022-10-01T13:48:34.773Z,10.30
2022-10-01T13:56:14.533Z,10.30
2022-10-01T13:58:44.231Z,10.30
2022-10-01T14:04:05.292Z,10.30
2022-10-01T14:12:22.738Z,10.40
2022-10-01T14:17:50.939Z,10.60
2022-10-01T14:20:25.368Z,10.50
2022-10-01T14:25:23.367Z,10.50
2022-10-01T14:28:27.987Z,10.50
2022-10-01T14:31:33.415Z,10.50
2022-10-01T14:34:20.395Z,10.60
2022-10-01T14:36:53.588Z,9.20
2022-10-01T14:44:31.991Z,10.50
2022-10-01T14:57:27.065Z,11.00
2022-10-01T14:59:55.733Z,10.20
2022-10-01T15:04:55.448Z,10.50
2022-10-01T15:07:24.188Z,10.00
2022-10-01T15:09:51.865Z,9.90
2022-10-01T15:12:22.679Z,9.80
2022-10-01T15:14:54.313Z,9.70
2022-10-01T15:17:27.197Z,9.70
2022-10-01T15:19:57.269Z,9.60
2022-10-01T15:22:27.971Z,9.50
2022-10-01T15:24:59.628Z,9.50
2022-10-01T15:27:27.640Z,9.50
2022-10-01T15:29:59.555Z,9.50
2022-10-01T15:32:28.381Z,9.40
2022-10-01T15:34:59.930Z,9.40
2022-10-01T15:37:38.036Z,9.40
2022-10-01T15:40:09.751Z,9.40
2022-10-01T15:42:37.580Z,7.50
2022-10-01T15:45:07.968Z,9.30
2022-10-01T15:48:02.044Z,9.20
2022-10-01T15:50:41.868Z,9.20
2022-10-01T15:53:25.235Z,9.20
2022-10-01T15:55:57.073Z,9.10
2022-10-01T15:58:31.774Z,9.10
2022-10-01T16:01:30.032Z,9.10
2022-10-01T16:04:11.346Z,9.10
2022-10-01T16:06:45.416Z,9.00
2022-10-01T16:09:20.089Z,9.00
2022-10-01T16:12:04.107Z,9.00
2022-10-01T16:17:17.630Z,9.00
2022-10-01T16:19:46.667Z,9.00
2022-10-01T16:22:20.197Z,9.00
2022-10-01T16:27:20.296Z,9.00
2022-10-01T16:30:18.945Z,9.00
2022-10-01T16:32:46.499Z,9.00
2022-10-01T16:35:18.741Z,9.00
2022-10-01T16:37:49.362Z,9.00
2022-10-01T16:42:52.131Z,8.90
2022-10-01T16:45:25.222Z,9.00
2022-10-01T16:50:22.853Z,8.50
2022-10-01T16:52:55.524Z,9.00
2022-10-01T16:55:30.671Z,9.00
2022-10-01T16:57:57.975Z,9.00
2022-10-01T17:00:26.855Z,9.00
2022-10-01T17:02:55.425Z,9.00
2022-10-01T17:08:10.988Z,9.00
2022-10-01T17:10:48.481Z,9.00
2022-10-01T17:13:16.599Z,9.00
2022-10-01T17:15:44.576Z,8.90
2022-10-01T17:20:40.090Z,8.90
2022-10-01T17:23:08.053Z,8.90
2022-10-01T17:25:38.344Z,8.80
2022-10-01T17:28:08.678Z,8.80
2022-10-01T17:30:41.433Z,8.80
2022-10-01T17:33:10.590Z,8.80
2022-10-01T17:35:45.122Z,8.70
2022-10-01T17:38:13.242Z,8.70
2022-10-01T17:43:12.475Z,8.60
2022-10-01T17:45:40.331Z,8.60
2022-10-01T17:48:08.381Z,8.60
2022-10-01T17:50:43.841Z,8.70
2022-10-01T17:53:12.445Z,8.70
2022-10-01T17:55:44.698Z,8.80
2022-10-01T17:58:12.366Z,8.70
2022-10-01T18:00:41.321Z,8.60
2022-10-01T18:03:09.016Z,8.70
2022-10-01T18:05:37.088Z,9.20
2022-10-01T18:08:04.716Z,8.60
2022-10-01T18:15:27.917Z,8.60
2022-10-01T18:20:43.526Z,8.50
2022-10-01T18:23:11.097Z,8.80
2022-10-01T18:25:38.798Z,8.50
2022-10-01T18:30:35.123Z,8.50
2022-10-01T18:33:02.961Z,8.50
2022-10-01T18:35:35.187Z,9.00
2022-10-01T18:38:21.667Z,8.50
2022-10-01T18:40:57.103Z,8.40
2022-10-01T18:43:26.188Z,8.40
2022-10-01T18:45:56.653Z,8.40
2022-10-01T18:48:51.568Z,8.40
2022-10-01T18:54:18.051Z,8.30
2022-10-01T18:57:24.274Z,8.30
2022-10-01T19:00:23.566Z,8.30
2022-10-01T19:03:19.834Z,8.30
2022-10-01T19:06:22.686Z,8.30
2022-10-01T19:11:57.577Z,8.30
2022-10-01T19:14:53.127Z,8.30
2022-10-01T19:17:37.954Z,8.20
2022-10-01T19:20:07.836Z,8.20
2022-10-01T19:23:03.475Z,8.20
2022-10-01T19:25:48.547Z,8.20
2022-10-01T19:28:37.520Z,8.20
2022-10-01T19:31:16.494Z,8.20
2022-10-01T19:33:56.579Z,7.40
2022-10-01T19:36:34.818Z,8.20
2022-10-01T19:39:09.550Z,8.20
2022-10-01T19:44:15.931Z,8.20
2022-10-01T19:46:47.555Z,8.20
2022-10-01T19:49:41.227Z,8.20
2022-10-01T19:52:13.594Z,8.20
2022-10-01T19:57:25.242Z,8.20
2022-10-01T19:59:56.415Z,8.10
2022-10-01T20:05:04.090Z,8.50
2022-10-01T20:07:40.955Z,8.10
2022-10-01T20:10:36.373Z,8.20
2022-10-01T20:13:41.134Z,8.10
2022-10-01T20:16:21.366Z,8.20
2022-10-01T20:24:20.825Z,8.10
2022-10-01T20:27:01.744Z,8.20
2022-10-01T20:29:49.430Z,8.10
2022-10-01T20:32:25.940Z,8.20
2022-10-01T20:35:20.994Z,8.20
2022-10-01T20:38:16.199Z,8.20
2022-10-01T20:43:20.673Z,8.20
2022-10-01T20:48:33.818Z,8.20
2022-10-01T20:51:23.126Z,8.20
2022-10-01T20:54:10.869Z,8.20
2022-10-01T20:56:55.783Z,8.20
2022-10-01T20:59:44.740Z,8.20
2022-10-01T21:02:42.977Z,8.20
2022-10-01T21:05:14.468Z,8.30
2022-10-01T21:10:46.279Z,8.30
2022-10-01T21:13:21.755Z,8.30
2022-10-01T21:16:25.059Z,8.30
2022-10-01T21:19:00.521Z,8.30
2022-10-01T21:21:56.663Z,8.40
2022-10-01T21:24:41.172Z,8.30
2022-10-01T21:27:48.015Z,8.30
2022-10-01T21:30:19.215Z,7.10
2022-10-01T21:33:04.286Z,8.30
2022-10-01T21:35:59.564Z,8.20
2022-10-01T21:43:56.579Z,8.20
2022-10-01T21:46:53.386Z,10.60
2022-10-01T21:49:36.132Z,8.00
2022-10-01T21:52:22.341Z,8.00
2022-10-01T21:55:14.520Z,7.90
2022-10-01T21:57:48.430Z,7.90
2022-10-01T22:00:23.576Z,7.90
2022-10-01T22:03:06.431Z,7.80
2022-10-01T22:05:50.229Z,7.80
2022-10-01T22:10:48.758Z,7.40
2022-10-01T22:13:31.588Z,7.80
2022-10-01T22:16:10.333Z,7.80
2022-10-01T22:18:44.764Z,7.60
2022-10-01T22:21:35.949Z,7.70
2022-10-01T22:24:16.394Z,7.70
2022-10-01T22:26:49.355Z,7.70
2022-10-01T22:31:49.627Z,7.70
2022-10-01T22:34:25.712Z,7.60
2022-10-01T22:37:02.544Z,9.50
2022-10-01T22:39:36.125Z,7.60
2022-10-01T22:42:18.902Z,9.70
2022-10-01T22:47:28.993Z,7.60
2022-10-01T22:50:19.209Z,7.60
2022-10-01T22:53:34.538Z,7.60
2022-10-01T22:59:02.375Z,7.60
2022-10-01T23:02:06.611Z,7.60
2022-10-01T23:04:57.037Z,7.60
2022-10-01T23:07:36.338Z,7.50
2022-10-01T23:10:25.180Z,7.50
2022-10-01T23:15:52.388Z,7.60
2022-10-01T23:18:46.160Z,7.60
2022-10-01T23:21:20.461Z,7.60
2022-10-01T23:24:02.957Z,7.60
2022-10-01T23:26:36.220Z,7.60
2022-10-01T23:29:29.643Z,7.60
2022-10-01T23:32:19.173Z,7.70
2022-10-01T23:34:56.038Z,8.30
2022-10-01T23:38:07.547Z,7.80
2022-10-01T23:43:17.528Z,7.80
2022-10-01T23:46:06.119Z,7.90
2022-10-01T23:48:43.438Z,7.90
2022-10-01T23:51:21.745Z,7.90
2022-10-01T23:54:07.788Z,7.90
2022-10-01T23:56:50.228Z,7.90
2022-10-01T23:59:33.834Z,7.90
